Arrowsmith, Illinois
Current Conditions -  °F | °C
As of 10:56 AM on Wednesday 22 Oct 2014 (Local Time) from KBMI Reporting Station
Clear Clear  
Wind Chill: 11°   Ceiling: Unl
Heat Index: 11°   Visibility: 10mi
Dew Point:   Wind: 5mph
Humidity: 63%   Direction: NA
Pressure: 30.36"   Gusts: NA
Location:  40.45°N, 88.63°W
Report Text: KBMI 221556Z VRB04KT 10SM CLR 11/04 A3036 RMK AO2 T01110044 SLP288
Loading
Personal Weather Stations






























Interactive Weather Map
Tropical Storm Tracking
New forecast layout! Learn more

10-Day Weather Forecast

Advertisements
Track Severe Weather on mobile